createdAt,value
2024-01-21T00:00:26.273Z,-8.63
2024-01-21T00:02:52.845Z,-8.71
2024-01-21T00:05:19.330Z,-8.80
2024-01-21T00:07:45.882Z,-8.84
2024-01-21T00:10:12.320Z,-8.87
2024-01-21T00:12:38.810Z,-8.91
2024-01-21T00:15:05.343Z,-8.98
2024-01-21T00:17:31.902Z,-8.97
2024-01-21T00:19:58.397Z,-8.98
2024-01-21T00:22:24.879Z,-9.04
2024-01-21T00:24:51.314Z,-9.15
2024-01-21T00:27:17.821Z,-9.11
2024-01-21T00:29:44.365Z,-9.21
2024-01-21T00:32:12.057Z,-9.30
2024-01-21T00:34:38.513Z,-9.36
2024-01-21T00:37:05.008Z,-9.27
2024-01-21T00:39:31.493Z,-9.28
2024-01-21T00:42:04.866Z,-9.31
2024-01-21T00:44:35.118Z,-9.41
2024-01-21T00:47:01.547Z,-9.45
2024-01-21T00:49:28.087Z,-9.50
2024-01-21T00:51:55.002Z,-9.53
2024-01-21T00:54:21.566Z,-9.62
2024-01-21T00:56:48.028Z,-9.68
2024-01-21T00:59:14.566Z,-9.73
2024-01-21T01:01:41.125Z,-9.76
2024-01-21T01:04:07.755Z,-9.77
2024-01-21T01:06:34.517Z,-9.78
2024-01-21T01:09:01.014Z,-9.83
2024-01-21T01:11:27.451Z,-9.92
2024-01-21T01:13:54.010Z,-9.92
2024-01-21T01:16:20.448Z,-9.95
2024-01-21T01:18:47.005Z,-9.97
2024-01-21T01:21:13.623Z,-9.96
2024-01-21T01:23:40.123Z,-9.99
2024-01-21T01:26:06.587Z,-10.01
2024-01-21T01:28:33.099Z,-10.04
2024-01-21T01:30:59.591Z,-10.09
2024-01-21T01:33:26.284Z,-10.09
2024-01-21T01:35:53.076Z,-10.14
2024-01-21T01:38:19.561Z,-10.17
2024-01-21T01:40:46.058Z,-10.19
2024-01-21T01:43:12.649Z,-10.25
2024-01-21T01:45:39.101Z,-10.30
2024-01-21T01:48:05.618Z,-10.33
2024-01-21T01:50:32.155Z,-10.33
2024-01-21T01:52:58.609Z,-10.32
2024-01-21T01:55:25.045Z,-10.39
2024-01-21T01:57:51.670Z,-10.36
2024-01-21T02:00:18.214Z,-10.62
2024-01-21T02:02:44.749Z,-10.44
2024-01-21T02:05:11.320Z,-10.47
2024-01-21T02:07:37.810Z,-10.45
2024-01-21T02:10:04.270Z,-10.57
2024-01-21T02:12:31.680Z,-10.56
2024-01-21T02:14:58.181Z,-10.63
2024-01-21T02:17:24.617Z,-10.71
2024-01-21T02:19:53.611Z,-10.72
2024-01-21T02:22:20.084Z,-10.77
2024-01-21T02:24:46.677Z,-10.75
2024-01-21T02:27:13.399Z,-10.77
2024-01-21T02:29:39.893Z,-10.81
2024-01-21T02:32:06.443Z,-10.90
2024-01-21T02:34:33.023Z,-10.90
2024-01-21T02:36:59.571Z,-10.94
2024-01-21T02:39:26.093Z,-10.96
2024-01-21T02:41:52.669Z,-10.94
2024-01-21T02:44:19.169Z,-10.92
2024-01-21T02:46:45.679Z,-10.99
2024-01-21T02:49:12.528Z,-10.99
2024-01-21T02:51:39.112Z,-11.06
2024-01-21T02:54:05.557Z,-11.24
2024-01-21T02:56:32.109Z,-11.16
2024-01-21T02:58:58.601Z,-11.14
2024-01-21T03:01:25.310Z,-11.08
2024-01-21T03:03:52.165Z,-11.20
2024-01-21T03:06:18.745Z,-11.25
2024-01-21T03:08:45.255Z,-11.34
2024-01-21T03:11:11.778Z,-11.36
2024-01-21T03:13:38.248Z,-11.40
2024-01-21T03:16:04.671Z,-11.37
2024-01-21T03:18:31.263Z,-11.37
2024-01-21T03:20:57.732Z,-11.41
2024-01-21T03:23:24.133Z,-11.48
2024-01-21T03:25:50.680Z,-11.59
2024-01-21T03:28:17.147Z,-11.70
2024-01-21T03:30:43.729Z,-11.71
2024-01-21T03:33:10.508Z,-11.73
2024-01-21T03:35:37.178Z,-11.63
2024-01-21T03:38:04.791Z,-11.61
2024-01-21T03:40:31.357Z,-11.70
2024-01-21T03:42:57.815Z,-11.70
2024-01-21T03:45:24.317Z,-11.79
2024-01-21T03:47:50.947Z,-11.93
2024-01-21T03:50:17.422Z,-11.96
2024-01-21T03:52:43.931Z,-12.06
2024-01-21T03:55:10.459Z,-12.09
2024-01-21T03:57:36.954Z,-11.99
2024-01-21T04:00:03.461Z,-12.09
2024-01-21T04:02:30.442Z,-12.17
2024-01-21T04:04:57.015Z,-12.21
2024-01-21T04:07:23.524Z,-12.17
2024-01-21T04:09:50.137Z,-12.13
2024-01-21T04:12:16.683Z,-12.12
2024-01-21T04:14:43.200Z,-12.32
2024-01-21T04:17:09.696Z,-12.38
2024-01-21T04:19:36.190Z,-12.40
2024-01-21T04:22:02.709Z,-12.44
2024-01-21T04:24:29.319Z,-12.52
2024-01-21T04:26:55.786Z,-12.57
2024-01-21T04:29:22.243Z,-12.57
2024-01-21T04:31:48.818Z,-12.70
2024-01-21T04:34:15.389Z,-12.89
2024-01-21T04:36:41.960Z,-12.95
2024-01-21T04:39:08.566Z,-13.00
2024-01-21T04:41:35.009Z,-13.03
2024-01-21T04:44:01.490Z,-12.98
2024-01-21T04:46:28.003Z,-12.92
2024-01-21T04:48:54.490Z,-12.83
2024-01-21T04:51:20.990Z,-12.88
2024-01-21T04:53:47.532Z,-12.86
2024-01-21T04:56:13.988Z,-12.76
2024-01-21T04:58:40.446Z,-12.82
2024-01-21T05:01:07.180Z,-12.86
2024-01-21T05:03:33.771Z,-12.87
2024-01-21T05:06:00.255Z,-12.73
2024-01-21T05:08:26.764Z,-12.67
2024-01-21T05:10:53.216Z,-12.68
2024-01-21T05:13:19.704Z,-12.74
2024-01-21T05:15:46.291Z,-12.82
2024-01-21T05:18:12.759Z,-12.92
2024-01-21T05:20:39.216Z,-12.97
2024-01-21T05:23:05.747Z,-13.02
2024-01-21T05:25:32.245Z,-13.08
2024-01-21T05:27:58.769Z,-13.10
2024-01-21T05:30:25.330Z,-13.06
2024-01-21T05:32:51.842Z,-13.03
2024-01-21T05:35:18.268Z,-12.96
2024-01-21T05:37:44.833Z,-12.94
2024-01-21T05:40:11.361Z,-12.94
2024-01-21T05:42:37.828Z,-13.01
2024-01-21T05:45:04.323Z,-13.05
2024-01-21T05:47:30.929Z,-13.00
2024-01-21T05:49:57.457Z,-13.01
2024-01-21T05:52:24.096Z,-13.04
2024-01-21T05:54:50.872Z,-13.03
2024-01-21T05:57:17.338Z,-12.94
2024-01-21T05:59:43.861Z,-12.88
2024-01-21T06:02:10.425Z,-12.89
2024-01-21T06:04:36.909Z,-12.89
2024-01-21T06:07:03.409Z,-12.87
2024-01-21T06:09:29.938Z,-12.90
2024-01-21T06:11:56.391Z,-12.82
2024-01-21T06:14:23.230Z,-12.91
2024-01-21T06:16:49.725Z,-12.88
2024-01-21T06:19:16.362Z,-12.83
2024-01-21T06:21:42.965Z,-12.81
2024-01-21T06:24:09.406Z,-12.78
2024-01-21T06:26:35.857Z,-12.75
2024-01-21T06:29:02.406Z,-12.74
2024-01-21T06:31:28.896Z,-12.61
2024-01-21T06:33:55.487Z,-12.64
2024-01-21T06:36:22.090Z,-12.63
2024-01-21T06:38:48.560Z,-12.58
2024-01-21T06:41:15.009Z,-12.45
2024-01-21T06:43:41.552Z,-12.39
2024-01-21T06:46:08.004Z,-12.39
2024-01-21T06:48:34.633Z,-12.42
2024-01-21T06:51:01.242Z,-12.40
2024-01-21T06:53:27.676Z,-12.43
2024-01-21T06:55:54.119Z,-12.31
2024-01-21T06:58:20.620Z,-12.19
2024-01-21T07:00:47.147Z,-11.75
2024-01-21T07:03:13.748Z,-11.75
2024-01-21T07:05:40.363Z,-11.75
2024-01-21T07:08:06.863Z,-11.65
2024-01-21T07:10:33.314Z,-11.09
2024-01-21T07:13:02.316Z,-10.45
2024-01-21T07:15:28.985Z,-11.01
2024-01-21T07:17:56.948Z,-11.29
2024-01-21T07:20:23.665Z,-11.41
2024-01-21T07:22:50.186Z,-11.47
2024-01-21T07:25:16.610Z,-11.40
2024-01-21T07:27:43.198Z,-11.41
2024-01-21T07:30:09.749Z,-11.29
2024-01-21T07:32:36.283Z,-11.23
2024-01-21T07:35:02.900Z,-11.05
2024-01-21T07:37:30.279Z,-10.38
2024-01-21T07:39:56.756Z,-8.76
2024-01-21T07:42:23.371Z,-9.26
2024-01-21T07:44:49.852Z,-9.67
2024-01-21T07:47:16.349Z,-10.19
2024-01-21T07:49:43.057Z,-10.51
2024-01-21T07:52:09.582Z,-10.74
2024-01-21T07:54:36.088Z,-10.63
2024-01-21T07:57:02.683Z,-10.40
2024-01-21T07:59:29.114Z,-10.07
2024-01-21T08:01:55.638Z,-10.07
2024-01-21T08:04:22.309Z,-10.25
2024-01-21T08:06:48.829Z,-10.45
2024-01-21T08:09:16.704Z,-10.49
2024-01-21T08:11:45.115Z,-10.36
2024-01-21T08:14:11.560Z,-10.15
2024-01-21T08:16:38.040Z,-10.01
2024-01-21T08:19:04.654Z,-9.89
2024-01-21T08:21:31.717Z,-9.83
2024-01-21T08:23:58.184Z,-9.61
2024-01-21T08:26:24.814Z,-5.35
2024-01-21T08:28:51.304Z,-3.52
2024-01-21T08:31:17.747Z,-3.37
2024-01-21T08:33:44.444Z,-3.49
2024-01-21T08:36:11.024Z,-6.81
2024-01-21T08:38:37.498Z,-8.13
2024-01-21T08:41:04.076Z,-8.60
2024-01-21T08:43:30.576Z,-8.87
2024-01-21T08:45:57.234Z,-8.86
2024-01-21T08:48:25.338Z,-9.00
2024-01-21T08:50:51.844Z,-8.92
2024-01-21T08:53:18.303Z,-8.22
2024-01-21T08:55:44.890Z,-7.59
2024-01-21T08:58:11.369Z,-6.37
2024-01-21T09:00:37.940Z,-6.15
2024-01-21T09:03:04.585Z,-6.72
2024-01-21T09:05:31.076Z,-5.04
2024-01-21T09:07:57.572Z,-4.26
2024-01-21T09:10:24.087Z,-2.22
2024-01-21T09:12:50.554Z,-2.28
2024-01-21T09:15:17.093Z,-3.98
2024-01-21T09:17:43.725Z,-4.22
2024-01-21T09:20:10.284Z,-2.81
2024-01-21T09:22:36.894Z,-1.67
2024-01-21T09:25:03.542Z,-3.74
2024-01-21T09:27:30.264Z,-5.66
2024-01-21T09:29:56.811Z,-7.03
2024-01-21T09:32:23.348Z,-6.38
2024-01-21T09:34:49.922Z,-5.42
2024-01-21T09:37:16.412Z,-5.87
2024-01-21T09:39:43.006Z,-5.97
2024-01-21T09:42:09.519Z,-6.06
2024-01-21T09:44:35.952Z,-6.93
2024-01-21T09:47:02.564Z,-7.34
2024-01-21T09:49:29.213Z,-7.22
2024-01-21T09:51:55.940Z,-6.45
2024-01-21T09:54:22.657Z,-5.13
2024-01-21T09:56:49.195Z,-5.22
2024-01-21T09:59:15.626Z,-6.05
2024-01-21T10:01:42.230Z,-4.31
2024-01-21T10:04:08.894Z,-2.87
2024-01-21T10:06:35.508Z,-4.65
2024-01-21T10:09:02.094Z,-5.61
2024-01-21T10:11:28.570Z,-6.19
2024-01-21T10:13:55.042Z,-6.81
2024-01-21T10:16:21.561Z,-7.50
2024-01-21T10:18:48.040Z,-7.72
2024-01-21T10:21:15.425Z,-7.76
2024-01-21T10:23:43.625Z,-7.89
2024-01-21T10:26:11.849Z,-8.00
2024-01-21T10:28:38.318Z,-8.14
2024-01-21T10:31:05.416Z,-7.95
2024-01-21T10:33:31.986Z,-7.91
2024-01-21T10:35:58.518Z,-8.02
2024-01-21T10:38:25.213Z,-7.96
2024-01-21T10:40:51.698Z,-8.05
2024-01-21T10:43:20.999Z,-7.98
2024-01-21T10:45:49.688Z,-7.88
2024-01-21T10:48:16.309Z,-7.71
2024-01-21T10:50:42.800Z,-7.69
2024-01-21T10:53:09.312Z,-7.88
2024-01-21T10:55:35.810Z,-8.03
2024-01-21T10:58:02.306Z,-8.01
2024-01-21T11:00:29.012Z,-8.01
2024-01-21T11:02:55.583Z,-7.88
2024-01-21T11:05:22.183Z,-7.89
2024-01-21T11:07:48.792Z,-7.94
2024-01-21T11:10:15.285Z,-8.01
2024-01-21T11:12:41.784Z,-8.04
2024-01-21T11:15:08.388Z,-8.20
2024-01-21T11:17:34.952Z,-8.19
2024-01-21T11:20:01.479Z,-8.19
2024-01-21T11:22:28.038Z,-8.14
2024-01-21T11:24:54.576Z,-8.13
2024-01-21T11:27:21.260Z,-8.03
2024-01-21T11:29:47.844Z,-8.01
2024-01-21T11:32:14.315Z,-8.05
2024-01-21T11:34:40.932Z,-8.03
2024-01-21T11:37:07.620Z,-8.07
2024-01-21T11:39:34.150Z,-8.17
2024-01-21T11:42:00.629Z,-8.20
2024-01-21T11:44:30.055Z,-8.14
2024-01-21T11:46:57.097Z,-8.17
2024-01-21T11:49:23.540Z,-8.26
2024-01-21T11:51:52.163Z,-8.32
2024-01-21T11:54:19.265Z,-8.37
2024-01-21T11:56:46.701Z,-8.42
2024-01-21T11:59:13.432Z,-8.41
2024-01-21T12:01:40.009Z,-8.42
2024-01-21T12:04:06.621Z,-8.53
2024-01-21T12:06:33.374Z,-8.59
2024-01-21T12:09:01.113Z,-8.67
2024-01-21T12:11:28.405Z,-8.69
2024-01-21T12:13:55.031Z,-8.69
2024-01-21T12:16:21.530Z,-8.67
2024-01-21T12:18:47.992Z,-8.76
2024-01-21T12:21:14.801Z,-8.80
2024-01-21T12:23:43.717Z,-8.82
2024-01-21T12:26:10.146Z,-8.99
2024-01-21T12:28:36.687Z,-8.88
2024-01-21T12:31:03.229Z,-8.91
2024-01-21T12:33:30.272Z,-8.95
2024-01-21T12:35:58.105Z,-9.04
2024-01-21T12:38:25.044Z,-9.10
2024-01-21T12:40:51.491Z,-9.08
2024-01-21T12:43:18.023Z,-8.67
2024-01-21T12:45:44.584Z,-8.87
2024-01-21T12:48:11.110Z,-8.99
2024-01-21T12:50:37.870Z,-9.13
2024-01-21T12:53:04.390Z,-9.13
2024-01-21T12:55:30.811Z,-9.22
2024-01-21T12:57:57.452Z,-9.27
2024-01-21T13:00:24.055Z,-9.28
2024-01-21T13:02:50.580Z,-9.32
2024-01-21T13:05:18.032Z,-9.41
2024-01-21T13:07:45.017Z,-9.46
2024-01-21T13:10:11.447Z,-9.50
2024-01-21T13:12:39.070Z,-9.41
2024-01-21T13:15:05.553Z,-9.51
2024-01-21T13:17:32.052Z,-9.55
2024-01-21T13:19:58.594Z,-9.66
2024-01-21T13:22:25.038Z,-9.65
2024-01-21T13:24:51.522Z,-9.75
2024-01-21T13:27:18.181Z,-9.78
2024-01-21T13:29:44.688Z,-9.75
2024-01-21T13:32:11.147Z,-9.84
2024-01-21T13:34:38.144Z,-9.95
2024-01-21T13:37:04.731Z,-10.02
2024-01-21T13:39:31.240Z,-10.13
2024-01-21T13:41:57.869Z,-10.17
2024-01-21T13:44:24.851Z,-10.24
2024-01-21T13:46:51.630Z,-10.34
2024-01-21T13:49:18.270Z,-10.34
2024-01-21T13:51:44.866Z,-10.27
2024-01-21T13:54:12.687Z,-10.38
2024-01-21T13:56:40.341Z,-10.42
2024-01-21T13:59:06.803Z,-10.44
2024-01-21T14:01:33.421Z,-10.49
2024-01-21T14:04:00.123Z,-10.47
2024-01-21T14:06:26.683Z,-10.55
2024-01-21T14:08:53.270Z,-10.69
2024-01-21T14:11:19.799Z,-10.90
2024-01-21T14:13:46.361Z,-11.12
2024-01-21T14:16:12.826Z,-11.25
2024-01-21T14:18:41.452Z,-11.42
2024-01-21T14:21:08.514Z,-11.53
2024-01-21T14:23:36.447Z,-11.62
2024-01-21T14:26:03.025Z,-11.71
2024-01-21T14:28:30.070Z,-11.80
2024-01-21T14:30:56.632Z,-11.84
2024-01-21T14:33:23.225Z,-11.93
2024-01-21T14:35:49.739Z,-11.85
2024-01-21T14:38:16.321Z,-11.99
2024-01-21T14:40:45.284Z,-11.99
2024-01-21T14:43:13.970Z,-12.00
2024-01-21T14:45:40.522Z,-11.88
2024-01-21T14:48:07.334Z,-12.00
2024-01-21T14:50:33.917Z,-12.13
2024-01-21T14:53:00.472Z,-12.28
2024-01-21T14:55:27.102Z,-12.12
2024-01-21T14:57:53.575Z,-12.20
2024-01-21T15:00:20.475Z,-12.24
2024-01-21T15:02:47.415Z,-12.25
2024-01-21T15:05:13.854Z,-12.23
2024-01-21T15:07:44.867Z,-12.15
2024-01-21T15:10:14.150Z,-12.20
2024-01-21T15:12:40.663Z,-12.23
2024-01-21T15:15:07.167Z,-12.42
2024-01-21T15:17:33.760Z,-12.51
2024-01-21T15:20:00.509Z,-12.43
2024-01-21T15:22:27.128Z,-12.39
2024-01-21T15:24:53.703Z,-12.35
2024-01-21T15:27:20.213Z,-12.53
2024-01-21T15:29:46.742Z,-12.64
2024-01-21T15:32:13.300Z,-12.66
2024-01-21T15:34:41.188Z,-12.78
2024-01-21T15:37:08.048Z,-12.79
2024-01-21T15:39:34.600Z,-12.79
2024-01-21T15:42:01.163Z,-12.89
2024-01-21T15:44:27.935Z,-12.94
2024-01-21T15:46:54.670Z,-12.96
2024-01-21T15:49:21.280Z,-12.94
2024-01-21T15:51:49.127Z,-12.84
2024-01-21T15:54:16.034Z,-12.82
2024-01-21T15:56:42.517Z,-12.90
2024-01-21T15:59:08.991Z,-12.90
2024-01-21T16:01:35.663Z,-12.83
2024-01-21T16:04:02.368Z,-12.76
2024-01-21T16:06:29.231Z,-12.70
2024-01-21T16:08:55.987Z,-12.67
2024-01-21T16:11:22.452Z,-12.73
2024-01-21T16:13:48.949Z,-12.84
2024-01-21T16:16:15.569Z,-12.85
2024-01-21T16:18:42.226Z,-12.81
2024-01-21T16:21:08.713Z,-12.71
2024-01-21T16:23:35.784Z,-12.50
2024-01-21T16:26:02.315Z,-12.34
2024-01-21T16:28:28.846Z,-12.26
2024-01-21T16:30:55.458Z,-12.32
2024-01-21T16:33:22.115Z,-12.48
2024-01-21T16:35:48.633Z,-12.58
2024-01-21T16:38:15.234Z,-12.67
2024-01-21T16:40:41.764Z,-12.83
2024-01-21T16:43:08.264Z,-12.91
2024-01-21T16:45:34.948Z,-12.95
2024-01-21T16:48:01.607Z,-12.93
2024-01-21T16:50:28.211Z,-12.90
2024-01-21T16:52:54.737Z,-12.80
2024-01-21T16:55:21.244Z,-12.86
2024-01-21T16:57:47.761Z,-12.98
2024-01-21T17:00:14.324Z,-12.99
2024-01-21T17:02:40.805Z,-12.99
2024-01-21T17:05:07.461Z,-13.10
2024-01-21T17:07:34.221Z,-12.92
2024-01-21T17:10:00.701Z,-12.86
2024-01-21T17:12:27.156Z,-12.95
2024-01-21T17:14:53.968Z,-12.84
2024-01-21T17:17:20.555Z,-12.86
2024-01-21T17:19:47.015Z,-12.98
2024-01-21T17:22:13.695Z,-12.94
2024-01-21T17:24:40.165Z,-12.92
2024-01-21T17:27:06.764Z,-12.83
2024-01-21T17:29:33.342Z,-12.84
2024-01-21T17:31:59.841Z,-12.88
2024-01-21T17:34:26.414Z,-12.71
2024-01-21T17:36:53.314Z,-12.86
2024-01-21T17:39:19.904Z,-12.90
2024-01-21T17:41:46.421Z,-12.93
2024-01-21T17:44:13.025Z,-12.79
2024-01-21T17:46:39.559Z,-12.64
2024-01-21T17:49:06.316Z,-12.65
2024-01-21T17:51:32.981Z,-12.75
2024-01-21T17:53:59.467Z,-12.85
2024-01-21T17:56:25.934Z,-12.92
2024-01-21T17:58:52.537Z,-13.10
2024-01-21T18:01:19.134Z,-13.05
2024-01-21T18:03:45.670Z,-13.19
2024-01-21T18:06:12.237Z,-13.02
2024-01-21T18:08:38.877Z,-12.99
2024-01-21T18:11:05.434Z,-12.86
2024-01-21T18:13:32.051Z,-13.06
2024-01-21T18:15:58.525Z,-13.05
2024-01-21T18:18:25.047Z,-13.07
2024-01-21T18:20:51.703Z,-12.91
2024-01-21T18:23:18.182Z,-12.87
2024-01-21T18:25:44.647Z,-12.94
2024-01-21T18:28:11.258Z,-12.92
2024-01-21T18:30:37.728Z,-12.76
2024-01-21T18:33:04.427Z,-12.73
2024-01-21T18:35:31.185Z,-12.76
2024-01-21T18:37:57.738Z,-12.85
2024-01-21T18:40:24.204Z,-12.97
2024-01-21T18:42:50.814Z,-12.83
2024-01-21T18:45:17.382Z,-12.92
2024-01-21T18:47:43.990Z,-12.72
2024-01-21T18:50:10.613Z,-12.55
2024-01-21T18:52:37.090Z,-12.53
2024-01-21T18:55:03.580Z,-12.60
2024-01-21T18:57:30.121Z,-12.58
2024-01-21T18:59:56.642Z,-12.32
2024-01-21T19:02:23.266Z,-12.20
2024-01-21T19:04:50.443Z,-11.84
2024-01-21T19:07:17.193Z,-11.81
2024-01-21T19:09:43.881Z,-11.80
2024-01-21T19:12:10.546Z,-11.85
2024-01-21T19:14:37.167Z,-11.91
2024-01-21T19:17:03.721Z,-11.94
2024-01-21T19:19:30.337Z,-11.84
2024-01-21T19:21:56.763Z,-11.68
2024-01-21T19:24:23.318Z,-11.60
2024-01-21T19:26:50.001Z,-11.53
2024-01-21T19:29:16.448Z,-11.55
2024-01-21T19:31:42.917Z,-11.57
2024-01-21T19:34:09.613Z,-11.64
2024-01-21T19:36:36.068Z,-11.60
2024-01-21T19:39:02.574Z,-11.51
2024-01-21T19:41:29.197Z,-11.68
2024-01-21T19:43:55.654Z,-11.73
2024-01-21T19:46:22.135Z,-11.82
2024-01-21T19:48:50.935Z,-11.86
2024-01-21T19:51:17.554Z,-11.78
2024-01-21T19:53:43.975Z,-11.75
2024-01-21T19:56:10.587Z,-11.67
2024-01-21T19:58:37.050Z,-11.75
2024-01-21T20:01:03.793Z,-11.76
2024-01-21T20:03:30.501Z,-11.70
2024-01-21T20:05:57.156Z,-11.74
2024-01-21T20:08:23.732Z,-11.79
2024-01-21T20:10:50.312Z,-11.86
2024-01-21T20:13:16.805Z,-11.92
2024-01-21T20:15:43.517Z,-11.86
2024-01-21T20:18:10.133Z,-11.81
2024-01-21T20:20:36.705Z,-11.67
2024-01-21T20:23:03.225Z,-11.59
2024-01-21T20:25:29.754Z,-11.73
2024-01-21T20:27:56.227Z,-11.81
2024-01-21T20:30:22.694Z,-11.81
2024-01-21T20:32:49.387Z,-11.84
2024-01-21T20:35:16.293Z,-11.79
2024-01-21T20:37:42.745Z,-11.74
2024-01-21T20:40:09.286Z,-11.79
2024-01-21T20:42:35.760Z,-11.74
2024-01-21T20:45:02.278Z,-11.76
2024-01-21T20:47:29.046Z,-11.79
2024-01-21T20:49:55.537Z,-11.90
2024-01-21T20:52:21.991Z,-11.74
2024-01-21T20:54:48.577Z,-11.82
2024-01-21T20:57:15.108Z,-11.83
2024-01-21T20:59:41.779Z,-11.76
2024-01-21T21:02:08.341Z,-11.80
2024-01-21T21:04:34.764Z,-11.84
2024-01-21T21:07:01.299Z,-11.83
2024-01-21T21:09:27.835Z,-11.80
2024-01-21T21:11:54.429Z,-11.78
2024-01-21T21:14:20.926Z,-11.75
2024-01-21T21:16:47.455Z,-11.77
2024-01-21T21:19:14.320Z,-11.79
2024-01-21T21:21:40.942Z,-11.80
2024-01-21T21:24:07.552Z,-11.68
2024-01-21T21:26:34.167Z,-11.53
2024-01-21T21:29:00.592Z,-11.50
2024-01-21T21:31:27.137Z,-11.52
2024-01-21T21:33:53.773Z,-11.38
2024-01-21T21:36:20.358Z,-11.31
2024-01-21T21:38:47.040Z,-11.39
2024-01-21T21:41:13.517Z,-11.29
2024-01-21T21:43:40.002Z,-11.24
2024-01-21T21:46:06.593Z,-11.29
2024-01-21T21:48:33.293Z,-11.32
2024-01-21T21:51:00.013Z,-11.50
2024-01-21T21:53:27.345Z,-11.54
2024-01-21T21:55:53.913Z,-11.48
2024-01-21T21:58:20.593Z,-11.34
2024-01-21T22:00:48.063Z,-11.30
2024-01-21T22:03:15.587Z,-11.17
2024-01-21T22:05:42.294Z,-10.96
2024-01-21T22:08:09.246Z,-10.78
2024-01-21T22:10:36.551Z,-10.84
2024-01-21T22:13:03.095Z,-10.96
2024-01-21T22:15:29.638Z,-11.04
2024-01-21T22:17:56.261Z,-11.22
2024-01-21T22:20:22.956Z,-11.25
2024-01-21T22:22:50.305Z,-11.28
2024-01-21T22:25:16.766Z,-11.29
2024-01-21T22:27:43.217Z,-11.04
2024-01-21T22:30:09.829Z,-11.15
2024-01-21T22:32:36.446Z,-11.39
2024-01-21T22:35:03.112Z,-11.57
2024-01-21T22:37:30.409Z,-11.86
2024-01-21T22:39:56.846Z,-12.03
2024-01-21T22:42:23.292Z,-12.13
2024-01-21T22:44:49.851Z,-12.18
2024-01-21T22:47:16.382Z,-12.24
2024-01-21T22:49:42.943Z,-12.33
2024-01-21T22:52:09.746Z,-12.42
2024-01-21T22:54:36.398Z,-12.35
2024-01-21T22:57:02.960Z,-12.47
2024-01-21T22:59:29.551Z,-12.56
2024-01-21T23:01:55.997Z,-12.62
2024-01-21T23:04:22.479Z,-12.74
2024-01-21T23:06:49.118Z,-12.77
2024-01-21T23:09:15.631Z,-12.74
2024-01-21T23:11:42.243Z,-12.74
2024-01-21T23:14:08.846Z,-12.74
2024-01-21T23:16:35.308Z,-12.80
2024-01-21T23:19:01.831Z,-12.79
2024-01-21T23:21:28.432Z,-12.98
2024-01-21T23:23:54.972Z,-13.07
2024-01-21T23:26:21.420Z,-13.14
2024-01-21T23:28:47.952Z,-13.21
2024-01-21T23:31:14.544Z,-13.27
2024-01-21T23:33:41.107Z,-13.33
2024-01-21T23:36:07.777Z,-13.48
2024-01-21T23:38:34.262Z,-13.54
2024-01-21T23:41:00.739Z,-13.59
2024-01-21T23:43:27.302Z,-13.67
2024-01-21T23:45:53.783Z,-13.74
2024-01-21T23:48:20.314Z,-13.83
2024-01-21T23:50:46.894Z,-13.84
2024-01-21T23:53:13.402Z,-13.83
2024-01-21T23:55:39.898Z,-13.89
2024-01-21T23:58:06.481Z,-13.96
